createdAt,value
2023-03-17T00:00:43.128Z,6.60
2023-03-17T00:03:24.669Z,8.53
2023-03-17T00:05:53.484Z,5.67
2023-03-17T00:08:23.127Z,6.13
2023-03-17T00:10:51.617Z,5.33
2023-03-17T00:13:19.258Z,6.30
2023-03-17T00:15:47.416Z,5.50
2023-03-17T00:18:15.704Z,6.07
2023-03-17T00:20:42.902Z,6.90
2023-03-17T00:23:19.819Z,6.53
2023-03-17T00:25:47.972Z,7.07
2023-03-17T00:28:18.938Z,5.43
2023-03-17T00:30:46.549Z,5.27
2023-03-17T00:33:16.194Z,6.07
2023-03-17T00:35:44.306Z,4.97
2023-03-17T00:38:14.712Z,5.57
2023-03-17T00:40:42.385Z,4.00
2023-03-17T00:43:09.981Z,4.47
2023-03-17T00:45:37.813Z,7.50
2023-03-17T00:48:11.064Z,4.47
2023-03-17T00:50:39.006Z,4.43
2023-03-17T00:53:06.653Z,3.87
2023-03-17T00:55:35.090Z,4.07
2023-03-17T00:58:02.983Z,3.97
2023-03-17T01:00:32.400Z,5.27
2023-03-17T01:03:04.258Z,7.40
2023-03-17T01:05:32.136Z,4.03
2023-03-17T01:07:59.694Z,9.30
2023-03-17T01:10:28.090Z,4.77
2023-03-17T01:12:58.205Z,5.03
2023-03-17T01:15:26.977Z,3.90
2023-03-17T01:17:54.919Z,4.47
2023-03-17T01:20:25.850Z,4.37
2023-03-17T01:22:53.363Z,3.87
2023-03-17T01:25:21.446Z,4.70
2023-03-17T01:27:49.394Z,3.43
2023-03-17T01:30:16.804Z,7.33
2023-03-17T01:32:44.906Z,4.27
2023-03-17T01:35:13.293Z,5.40
2023-03-17T01:37:41.383Z,4.40
2023-03-17T01:40:12.986Z,5.57
2023-03-17T01:42:41.486Z,4.87
2023-03-17T01:45:29.660Z,3.07
2023-03-17T01:47:57.506Z,5.23
2023-03-17T01:50:25.723Z,4.70
2023-03-17T01:52:53.755Z,6.80
2023-03-17T01:55:21.714Z,4.50
2023-03-17T01:57:54.323Z,5.30
2023-03-17T02:00:24.410Z,5.27
2023-03-17T02:02:52.684Z,4.70
2023-03-17T02:05:23.096Z,5.13
2023-03-17T02:07:51.610Z,4.90
2023-03-17T02:10:19.713Z,3.90
2023-03-17T02:12:47.799Z,5.23
2023-03-17T02:15:15.591Z,5.70
2023-03-17T02:17:44.005Z,5.33
2023-03-17T02:20:16.970Z,4.83
2023-03-17T02:22:45.188Z,4.63
2023-03-17T02:25:14.089Z,3.83
2023-03-17T02:27:46.544Z,6.03
2023-03-17T02:30:17.100Z,7.93
2023-03-17T02:32:45.143Z,5.57
2023-03-17T02:35:13.399Z,7.27
2023-03-17T02:37:44.698Z,4.67
2023-03-17T02:40:14.440Z,5.77
2023-03-17T02:42:45.892Z,5.33
2023-03-17T02:45:17.256Z,4.37
2023-03-17T02:47:45.244Z,5.77
2023-03-17T02:50:18.167Z,4.80
2023-03-17T02:52:46.253Z,4.53
2023-03-17T02:55:14.388Z,6.13
2023-03-17T02:57:42.676Z,4.03
2023-03-17T03:00:13.520Z,5.07
2023-03-17T03:02:41.524Z,3.90
2023-03-17T03:05:11.411Z,4.60
2023-03-17T03:07:39.019Z,3.47
2023-03-17T03:10:09.442Z,4.27
2023-03-17T03:12:37.974Z,4.13
2023-03-17T03:15:09.736Z,5.43
2023-03-17T03:17:37.608Z,4.50
2023-03-17T03:20:08.529Z,4.93
2023-03-17T03:22:36.466Z,3.80
2023-03-17T03:25:04.935Z,5.93
2023-03-17T03:27:32.755Z,9.00
2023-03-17T03:30:00.900Z,5.17
2023-03-17T03:32:28.345Z,6.20
2023-03-17T03:34:56.968Z,6.53
2023-03-17T03:37:25.856Z,4.60
2023-03-17T03:39:54.103Z,11.37
2023-03-17T03:42:22.155Z,5.07
2023-03-17T03:44:50.199Z,4.53
2023-03-17T03:47:20.744Z,5.70
2023-03-17T03:49:48.741Z,4.27
2023-03-17T03:52:16.473Z,6.33
2023-03-17T03:54:44.686Z,5.37
2023-03-17T03:57:13.476Z,4.47
2023-03-17T03:59:41.396Z,6.70
2023-03-17T04:02:10.154Z,5.40
2023-03-17T04:04:39.011Z,4.40
2023-03-17T04:07:07.724Z,5.93
2023-03-17T04:09:35.532Z,5.63
2023-03-17T04:12:04.117Z,4.40
2023-03-17T04:14:31.836Z,5.00
2023-03-17T04:17:00.420Z,8.07
2023-03-17T04:19:28.134Z,5.40
2023-03-17T04:21:56.155Z,7.20
2023-03-17T04:24:24.252Z,5.10
2023-03-17T04:26:52.710Z,4.87
2023-03-17T04:29:20.613Z,6.80
2023-03-17T04:31:48.951Z,4.37
2023-03-17T04:34:18.091Z,4.83
2023-03-17T04:36:46.748Z,4.27
2023-03-17T04:39:14.927Z,3.97
2023-03-17T04:41:43.033Z,5.30
2023-03-17T04:44:11.097Z,4.27
2023-03-17T04:46:39.174Z,4.03
2023-03-17T04:49:06.992Z,4.97
2023-03-17T04:51:36.939Z,4.90
2023-03-17T04:54:03.927Z,5.07
2023-03-17T04:56:32.462Z,6.27
2023-03-17T04:59:00.789Z,7.23
2023-03-17T05:01:28.930Z,3.27
2023-03-17T05:03:57.018Z,4.73
2023-03-17T05:06:25.280Z,7.60
2023-03-17T05:08:53.616Z,4.83
2023-03-17T05:11:21.821Z,4.57
2023-03-17T05:13:49.963Z,6.00
2023-03-17T05:16:17.646Z,6.90
2023-03-17T05:18:45.609Z,5.20
2023-03-17T05:21:13.369Z,6.57
2023-03-17T05:23:41.945Z,5.47
2023-03-17T05:26:10.351Z,5.00
2023-03-17T05:28:38.341Z,7.47
2023-03-17T05:31:07.252Z,6.17
2023-03-17T05:33:37.321Z,7.20
2023-03-17T05:36:07.264Z,6.87
2023-03-17T05:38:34.838Z,4.87
2023-03-17T05:41:04.602Z,4.13
2023-03-17T05:43:32.802Z,4.90
2023-03-17T05:46:01.156Z,4.37
2023-03-17T05:48:29.615Z,5.67
2023-03-17T05:50:57.250Z,3.97
2023-03-17T05:53:29.392Z,4.60
2023-03-17T05:55:57.814Z,3.93
2023-03-17T05:58:25.766Z,6.63
2023-03-17T06:00:53.409Z,7.80
2023-03-17T06:03:22.997Z,7.00
2023-03-17T06:05:50.879Z,5.13
2023-03-17T06:08:18.745Z,5.77
2023-03-17T06:10:46.554Z,6.13
2023-03-17T06:13:14.579Z,9.03
2023-03-17T06:15:45.512Z,7.60
2023-03-17T06:18:13.695Z,5.50
2023-03-17T06:20:44.580Z,5.97
2023-03-17T06:23:12.577Z,8.07
2023-03-17T06:25:40.401Z,6.23
2023-03-17T06:28:08.477Z,8.13
2023-03-17T06:30:40.407Z,6.70
2023-03-17T06:33:08.806Z,4.53
2023-03-17T06:35:36.728Z,5.57
2023-03-17T06:38:08.974Z,6.67
2023-03-17T06:40:36.105Z,5.67
2023-03-17T06:43:04.492Z,5.33
2023-03-17T06:45:35.413Z,9.10
2023-03-17T06:48:03.719Z,5.40
2023-03-17T06:50:31.384Z,4.87
2023-03-17T06:52:59.133Z,4.23
2023-03-17T06:55:27.635Z,6.67
2023-03-17T06:57:55.768Z,5.37
2023-03-17T07:00:24.463Z,7.17
2023-03-17T07:02:52.787Z,6.70
2023-03-17T07:05:20.804Z,6.37
2023-03-17T07:07:48.713Z,7.17
2023-03-17T07:10:16.493Z,7.03
2023-03-17T07:12:44.967Z,4.50
2023-03-17T07:15:13.619Z,6.87
2023-03-17T07:17:42.580Z,6.63
2023-03-17T07:20:12.573Z,5.03
2023-03-17T07:22:40.988Z,8.73
2023-03-17T07:25:11.013Z,8.90
2023-03-17T07:27:38.867Z,7.33
2023-03-17T07:30:08.097Z,6.53
2023-03-17T07:32:36.399Z,5.47
2023-03-17T07:35:05.236Z,5.33
2023-03-17T07:37:33.302Z,6.27
2023-03-17T07:40:01.214Z,6.17
2023-03-17T07:42:29.103Z,9.43
2023-03-17T07:44:56.852Z,9.10
2023-03-17T07:47:25.013Z,9.43
2023-03-17T07:49:53.303Z,6.40
2023-03-17T07:52:21.244Z,4.73
2023-03-17T07:54:49.562Z,4.67
2023-03-17T07:57:17.218Z,7.27
2023-03-17T07:59:45.453Z,6.43
2023-03-17T08:02:17.235Z,8.50
2023-03-17T08:04:48.891Z,6.40
2023-03-17T08:07:16.370Z,5.83
2023-03-17T08:09:44.656Z,6.03
2023-03-17T08:12:14.106Z,5.00
2023-03-17T08:14:41.814Z,7.00
2023-03-17T08:17:10.549Z,5.37
2023-03-17T08:19:38.952Z,6.23
2023-03-17T08:22:08.348Z,3.10
2023-03-17T08:24:37.113Z,4.47
2023-03-17T08:27:05.348Z,3.33
2023-03-17T08:29:33.573Z,4.27
2023-03-17T08:32:01.641Z,4.93
2023-03-17T08:34:29.468Z,5.07
2023-03-17T08:36:57.447Z,2.43
2023-03-17T08:39:25.534Z,5.80
2023-03-17T08:41:53.479Z,6.77
2023-03-17T08:44:21.851Z,8.23
2023-03-17T08:46:49.592Z,2.40
2023-03-17T08:49:17.798Z,2.67
2023-03-17T08:51:45.300Z,2.83
2023-03-17T08:54:12.635Z,1.83
2023-03-17T08:56:41.112Z,4.87
2023-03-17T08:59:31.596Z,4.73
2023-03-17T09:01:59.493Z,5.23
2023-03-17T09:04:28.122Z,3.83
2023-03-17T09:07:03.256Z,3.87
2023-03-17T09:09:32.292Z,2.38
2023-03-17T09:12:00.399Z,3.20
2023-03-17T09:14:28.974Z,4.40
2023-03-17T09:16:57.561Z,2.57
2023-03-17T09:19:25.898Z,1.90
2023-03-17T09:21:53.859Z,2.93
2023-03-17T09:24:21.696Z,3.87
2023-03-17T09:26:49.291Z,4.93
2023-03-17T09:29:17.385Z,3.97
2023-03-17T09:31:47.130Z,2.23
2023-03-17T09:34:15.255Z,6.07
2023-03-17T09:36:42.810Z,2.57
2023-03-17T09:39:10.603Z,2.87
2023-03-17T09:41:57.441Z,3.80
2023-03-17T09:44:45.527Z,3.33
2023-03-17T09:47:29.249Z,6.27
2023-03-17T09:49:59.052Z,4.73
2023-03-17T09:52:31.264Z,4.10
2023-03-17T09:54:58.146Z,3.47
2023-03-17T09:57:40.701Z,5.17
2023-03-17T10:00:19.423Z,3.60
2023-03-17T10:02:46.862Z,4.10
2023-03-17T10:05:13.903Z,3.07
2023-03-17T10:08:29.617Z,2.70
2023-03-17T10:11:18.816Z,2.30
2023-03-17T10:14:00.792Z,6.67
2023-03-17T10:16:33.733Z,3.17
2023-03-17T10:19:27.536Z,4.30
2023-03-17T10:21:59.206Z,3.10
2023-03-17T10:24:26.507Z,4.10
2023-03-17T10:26:54.347Z,4.13
2023-03-17T10:29:24.852Z,4.07
2023-03-17T10:31:53.336Z,5.97
2023-03-17T10:34:28.100Z,5.13
2023-03-17T10:37:27.375Z,4.77
2023-03-17T10:39:56.957Z,4.60
2023-03-17T10:42:29.358Z,5.63
2023-03-17T10:45:04.684Z,6.23
2023-03-17T10:47:40.791Z,4.50
2023-03-17T10:50:23.087Z,5.10
2023-03-17T10:52:59.674Z,5.90
2023-03-17T10:55:32.997Z,4.03
2023-03-17T10:58:08.351Z,5.20
2023-03-17T11:00:36.449Z,4.83
2023-03-17T11:03:13.785Z,3.40
2023-03-17T11:05:41.633Z,4.17
2023-03-17T11:08:17.853Z,3.40
2023-03-17T11:10:47.539Z,3.85
2023-03-17T11:13:17.791Z,4.30
2023-03-17T11:15:54.654Z,3.57
2023-03-17T11:18:24.294Z,6.78
2023-03-17T11:21:04.406Z,5.60
2023-03-17T11:23:48.257Z,3.85
2023-03-17T11:26:42.240Z,5.38
2023-03-17T11:29:30.493Z,3.45
2023-03-17T11:31:57.480Z,2.60
2023-03-17T11:34:40.476Z,3.38
2023-03-17T11:37:26.035Z,3.10
2023-03-17T11:40:05.975Z,4.40
2023-03-17T11:42:37.117Z,4.10
2023-03-17T11:45:15.751Z,3.37
2023-03-17T11:48:04.856Z,4.23
2023-03-17T11:50:40.193Z,4.37
2023-03-17T11:53:07.439Z,4.20
2023-03-17T11:56:04.422Z,4.70
2023-03-17T11:58:42.574Z,5.35
2023-03-17T12:01:13.675Z,5.90
2023-03-17T12:03:49.107Z,6.30
2023-03-17T12:06:33.659Z,5.20
2023-03-17T12:09:07.921Z,4.40
2023-03-17T12:11:38.255Z,4.63
2023-03-17T12:14:08.389Z,3.00
2023-03-17T12:16:35.444Z,3.83
2023-03-17T12:19:17.034Z,4.40
2023-03-17T12:21:54.398Z,5.80
2023-03-17T12:24:23.024Z,4.67
2023-03-17T12:27:01.947Z,5.83
2023-03-17T12:29:35.428Z,7.90
2023-03-17T12:32:16.938Z,7.87
2023-03-17T12:34:52.635Z,3.97
2023-03-17T12:37:19.761Z,3.92
2023-03-17T12:40:15.754Z,6.90
2023-03-17T12:43:07.420Z,4.53
2023-03-17T12:45:48.734Z,3.90
2023-03-17T12:48:25.803Z,8.45
2023-03-17T12:51:38.377Z,3.10
2023-03-17T12:54:12.293Z,4.03
2023-03-17T12:56:39.348Z,4.22
2023-03-17T12:59:08.639Z,3.05
2023-03-17T13:01:42.191Z,4.70
2023-03-17T13:04:26.465Z,4.85
2023-03-17T13:07:24.650Z,4.70
2023-03-17T13:09:54.503Z,3.28
2023-03-17T13:12:36.771Z,3.58
2023-03-17T13:15:03.984Z,3.63
2023-03-17T13:17:32.292Z,3.63
2023-03-17T13:20:08.289Z,3.30
2023-03-17T13:23:24.345Z,4.10
2023-03-17T13:25:55.188Z,2.97
2023-03-17T13:28:41.414Z,2.80
2023-03-17T13:31:28.539Z,3.58
2023-03-17T13:33:56.719Z,2.50
2023-03-17T13:36:36.364Z,3.17
2023-03-17T13:39:24.700Z,4.72
2023-03-17T13:41:55.779Z,5.55
2023-03-17T13:44:43.534Z,4.57
2023-03-17T13:47:34.030Z,5.55
2023-03-17T13:50:08.761Z,7.55
2023-03-17T13:52:40.870Z,4.22
2023-03-17T13:55:23.703Z,3.30
2023-03-17T13:58:24.053Z,3.58
2023-03-17T14:00:57.099Z,3.63
2023-03-17T14:03:43.946Z,4.40
2023-03-17T14:06:12.124Z,5.20
2023-03-17T14:08:47.855Z,3.90
2023-03-17T14:11:29.777Z,4.60
2023-03-17T14:14:06.103Z,4.50
2023-03-17T14:16:42.686Z,5.07
2023-03-17T14:19:21.655Z,4.38
2023-03-17T14:21:48.791Z,10.93
2023-03-17T14:24:46.075Z,4.22
2023-03-17T14:29:42.166Z,4.53
2023-03-17T14:32:17.607Z,6.13
2023-03-17T14:34:48.284Z,5.93
2023-03-17T14:37:16.121Z,5.57
2023-03-17T14:39:52.261Z,4.47
2023-03-17T14:44:49.234Z,6.22
2023-03-17T14:47:20.637Z,7.10
2023-03-17T14:49:48.615Z,4.70
2023-03-17T14:52:21.655Z,5.40
2023-03-17T14:54:53.705Z,5.85
2023-03-17T14:57:51.196Z,5.97
2023-03-17T15:00:37.901Z,7.22
2023-03-17T15:03:17.333Z,6.97
2023-03-17T15:05:49.475Z,9.27
2023-03-17T15:08:41.122Z,5.77
2023-03-17T15:11:16.044Z,6.03
2023-03-17T15:13:44.059Z,4.80
2023-03-17T15:16:40.408Z,6.87
2023-03-17T15:19:20.510Z,6.03
2023-03-17T15:21:59.873Z,7.17
2023-03-17T15:24:41.353Z,5.27
2023-03-17T15:27:18.249Z,5.87
2023-03-17T15:29:45.495Z,6.50
2023-03-17T15:32:16.667Z,6.17
2023-03-17T15:34:44.894Z,11.07
2023-03-17T15:37:18.074Z,9.33
2023-03-17T15:39:46.177Z,21.37
2023-03-17T15:42:14.102Z,11.13
2023-03-17T15:44:41.773Z,7.57
2023-03-17T15:47:10.580Z,7.37
2023-03-17T15:49:38.592Z,8.30
2023-03-17T15:52:15.581Z,6.87
2023-03-17T15:54:45.793Z,6.17
2023-03-17T15:57:13.546Z,9.13
2023-03-17T15:59:41.399Z,6.67
2023-03-17T16:02:27.916Z,8.27
2023-03-17T16:04:55.926Z,7.00
2023-03-17T16:07:23.803Z,11.93
2023-03-17T16:09:52.062Z,6.13
2023-03-17T16:12:19.916Z,9.73
2023-03-17T16:14:47.917Z,6.90
2023-03-17T16:17:20.635Z,5.83
2023-03-17T16:19:48.086Z,10.03
2023-03-17T16:22:35.474Z,7.63
2023-03-17T16:25:04.807Z,8.93
2023-03-17T16:27:32.985Z,7.70
2023-03-17T16:30:00.690Z,10.63
2023-03-17T16:32:28.405Z,11.10
2023-03-17T16:34:56.583Z,21.47
2023-03-17T16:37:24.697Z,16.30
2023-03-17T16:39:53.007Z,16.30
2023-03-17T16:42:23.573Z,13.90
2023-03-17T16:44:51.006Z,27.10
2023-03-17T16:47:19.086Z,19.07
2023-03-17T16:49:46.966Z,22.20
2023-03-17T16:52:15.063Z,24.60
2023-03-17T16:54:42.727Z,19.67
2023-03-17T16:57:12.037Z,15.23
2023-03-17T16:59:40.065Z,10.33
2023-03-17T17:02:15.451Z,6.63
2023-03-17T17:04:43.485Z,8.20
2023-03-17T17:07:11.802Z,12.30
2023-03-17T17:09:39.803Z,7.70
2023-03-17T17:12:08.726Z,8.60
2023-03-17T17:14:37.009Z,12.93
2023-03-17T17:17:04.373Z,25.03
2023-03-17T17:19:35.077Z,26.60
2023-03-17T17:22:03.359Z,25.87
2023-03-17T17:24:31.218Z,27.40
2023-03-17T17:26:59.744Z,26.43
2023-03-17T17:29:27.809Z,32.70
2023-03-17T17:31:55.876Z,32.93
2023-03-17T17:34:24.362Z,27.03
2023-03-17T17:36:52.126Z,22.97
2023-03-17T17:39:20.261Z,31.40
2023-03-17T17:41:48.547Z,27.03
2023-03-17T17:44:16.357Z,22.37
2023-03-17T17:46:45.426Z,18.20
2023-03-17T17:49:13.300Z,19.93
2023-03-17T17:51:41.022Z,14.70
2023-03-17T17:54:09.227Z,13.03
2023-03-17T17:56:40.151Z,14.47
2023-03-17T17:59:08.132Z,15.07
2023-03-17T18:01:36.092Z,9.03
2023-03-17T18:04:03.747Z,11.07
2023-03-17T18:06:32.015Z,15.90
2023-03-17T18:08:59.778Z,12.47
2023-03-17T18:11:27.720Z,13.73
2023-03-17T18:13:55.934Z,17.80
2023-03-17T18:16:24.685Z,9.30
2023-03-17T18:18:51.683Z,12.47
2023-03-17T18:21:19.229Z,18.00
2023-03-17T18:23:50.085Z,19.20
2023-03-17T18:26:17.817Z,11.50
2023-03-17T18:28:45.104Z,14.37
2023-03-17T18:31:14.474Z,13.93
2023-03-17T18:33:42.168Z,14.43
2023-03-17T18:36:09.849Z,9.53
2023-03-17T18:38:37.917Z,8.90
2023-03-17T18:41:05.341Z,10.03
2023-03-17T18:43:33.101Z,9.17
2023-03-17T18:46:01.156Z,10.03
2023-03-17T18:48:28.814Z,12.17
2023-03-17T18:50:56.886Z,10.53
2023-03-17T18:53:24.280Z,9.77
2023-03-17T18:55:53.106Z,13.30
2023-03-17T18:58:20.734Z,9.33
2023-03-17T19:00:49.616Z,12.97
2023-03-17T19:03:17.406Z,15.63
2023-03-17T19:05:45.717Z,11.77
2023-03-17T19:08:15.307Z,14.17
2023-03-17T19:10:46.333Z,12.77
2023-03-17T19:13:14.250Z,12.27
2023-03-17T19:15:42.052Z,9.53
2023-03-17T19:18:12.310Z,13.83
2023-03-17T19:20:40.996Z,12.80
2023-03-17T19:23:08.781Z,11.43
2023-03-17T19:25:36.916Z,17.90
2023-03-17T19:28:05.404Z,14.53
2023-03-17T19:30:32.898Z,15.97
2023-03-17T19:33:00.845Z,14.20
2023-03-17T19:35:29.073Z,18.27
2023-03-17T19:37:57.121Z,17.50
2023-03-17T19:40:25.513Z,31.43
2023-03-17T19:42:53.161Z,29.90
2023-03-17T19:45:26.172Z,17.37
2023-03-17T19:47:54.102Z,14.80
2023-03-17T19:50:21.833Z,20.67
2023-03-17T19:52:49.629Z,18.43
2023-03-17T19:55:17.930Z,18.03
2023-03-17T19:57:45.583Z,18.10
2023-03-17T20:00:15.028Z,14.53
2023-03-17T20:02:45.879Z,15.80
2023-03-17T20:05:14.081Z,14.87
2023-03-17T20:07:42.159Z,13.03
2023-03-17T20:10:13.469Z,14.27
2023-03-17T20:12:42.633Z,16.00
2023-03-17T20:15:10.278Z,16.13
2023-03-17T20:17:38.304Z,11.70
2023-03-17T20:20:10.575Z,14.17
2023-03-17T20:22:40.585Z,13.43
2023-03-17T20:25:10.629Z,13.47
2023-03-17T20:27:38.750Z,13.87
2023-03-17T20:30:08.374Z,14.33
2023-03-17T20:32:36.277Z,12.73
2023-03-17T20:35:06.737Z,13.43
2023-03-17T20:37:35.859Z,12.17
2023-03-17T20:40:05.601Z,12.07
2023-03-17T20:42:33.752Z,31.13
2023-03-17T20:45:03.350Z,23.13
2023-03-17T20:47:30.872Z,15.23
2023-03-17T20:49:59.503Z,11.23
2023-03-17T20:52:30.062Z,12.77
2023-03-17T20:54:59.576Z,10.03
2023-03-17T20:57:27.722Z,7.00
2023-03-17T20:59:56.065Z,8.47
2023-03-17T21:02:24.015Z,8.47
2023-03-17T21:04:52.573Z,10.27
2023-03-17T21:07:21.247Z,9.30
2023-03-17T21:09:49.656Z,6.43
2023-03-17T21:12:20.648Z,11.43
2023-03-17T21:14:48.768Z,10.13
2023-03-17T21:17:16.437Z,9.50
2023-03-17T21:19:44.505Z,8.80
2023-03-17T21:22:12.652Z,9.07
2023-03-17T21:24:40.668Z,8.87
2023-03-17T21:27:11.258Z,8.77
2023-03-17T21:29:40.049Z,7.93
2023-03-17T21:32:08.667Z,8.43
2023-03-17T21:34:36.955Z,7.77
2023-03-17T21:37:05.811Z,10.17
2023-03-17T21:39:33.150Z,8.93
2023-03-17T21:42:02.091Z,9.93
2023-03-17T21:44:29.726Z,8.33
2023-03-17T21:46:57.612Z,10.67
2023-03-17T21:49:25.318Z,12.33
2023-03-17T21:51:54.517Z,9.40
2023-03-17T21:54:22.602Z,9.90
2023-03-17T21:56:50.185Z,10.03
2023-03-17T21:59:18.794Z,10.73
2023-03-17T22:01:46.947Z,9.27
2023-03-17T22:04:14.707Z,8.40
2023-03-17T22:06:42.445Z,8.80
2023-03-17T22:09:11.112Z,8.87
2023-03-17T22:11:38.864Z,9.80
2023-03-17T22:14:06.743Z,11.07
2023-03-17T22:16:34.737Z,11.13
2023-03-17T22:19:02.480Z,13.03
2023-03-17T22:21:31.930Z,7.70
2023-03-17T22:23:59.818Z,7.83
2023-03-17T22:26:28.548Z,10.13
2023-03-17T22:28:55.793Z,10.43
2023-03-17T22:31:25.626Z,9.73
2023-03-17T22:33:55.459Z,7.83
2023-03-17T22:36:23.988Z,9.10
2023-03-17T22:38:51.970Z,11.87
2023-03-17T22:41:21.814Z,9.23
2023-03-17T22:43:49.493Z,9.00
2023-03-17T22:46:18.070Z,9.93
2023-03-17T22:48:46.327Z,7.60
2023-03-17T22:51:16.715Z,13.93
2023-03-17T22:53:44.742Z,9.20
2023-03-17T22:56:12.980Z,9.17
2023-03-17T22:58:41.117Z,7.27
2023-03-17T23:01:09.248Z,9.33
2023-03-17T23:03:37.184Z,8.67
2023-03-17T23:06:05.087Z,10.27
2023-03-17T23:08:35.305Z,7.87
2023-03-17T23:11:04.607Z,7.73
2023-03-17T23:13:32.442Z,10.03
2023-03-17T23:16:01.012Z,10.17
2023-03-17T23:18:29.151Z,13.57
2023-03-17T23:20:56.938Z,18.00
2023-03-17T23:23:24.571Z,10.47
2023-03-17T23:25:52.288Z,11.73
2023-03-17T23:28:26.540Z,11.70
2023-03-17T23:30:54.208Z,17.67
2023-03-17T23:33:22.995Z,10.47
2023-03-17T23:35:51.560Z,12.17
2023-03-17T23:38:19.633Z,12.40
2023-03-17T23:40:46.783Z,12.70
2023-03-17T23:43:14.949Z,11.57
2023-03-17T23:45:44.289Z,11.33
2023-03-17T23:48:11.974Z,11.00
2023-03-17T23:50:41.177Z,10.50
2023-03-17T23:53:09.647Z,10.53
2023-03-17T23:55:37.818Z,15.13
2023-03-17T23:58:06.294Z,13.67
